sensor_id;sensor_type;location;lat;lon;timestamp;pressure;altitude;pressure_sealevel;temperature;humidity
54172;BME280;40076;52.354;4.970;2023-02-10T00:01:14;103555.91;;;3.72;100.00
54172;BME280;40076;52.354;4.970;2023-02-10T00:03:40;103558.34;;;3.74;100.00
54172;BME280;40076;52.354;4.970;2023-02-10T00:06:09;103552.81;;;3.75;100.00
54172;BME280;40076;52.354;4.970;2023-02-10T00:08:35;103545.41;;;3.77;100.00
54172;BME280;40076;52.354;4.970;2023-02-10T00:11:06;103546.22;;;3.78;100.00
54172;BME280;40076;52.354;4.970;2023-02-10T00:13:39;103547.66;;;3.80;100.00
54172;BME280;40076;52.354;4.970;2023-02-10T00:16:06;103548.50;;;3.81;100.00
54172;BME280;40076;52.354;4.970;2023-02-10T00:18:34;103554.63;;;3.81;100.00
54172;BME280;40076;52.354;4.970;2023-02-10T00:21:12;103552.59;;;3.83;100.00
54172;BME280;40076;52.354;4.970;2023-02-10T00:23:38;103556.91;;;3.84;100.00
54172;BME280;40076;52.354;4.970;2023-02-10T00:26:04;103553.41;;;3.84;100.00
54172;BME280;40076;52.354;4.970;2023-02-10T00:28:32;103554.25;;;3.84;100.00
54172;BME280;40076;52.354;4.970;2023-02-10T00:30:57;103555.06;;;3.85;100.00
54172;BME280;40076;52.354;4.970;2023-02-10T00:33:22;103540.66;;;3.86;100.00
54172;BME280;40076;52.354;4.970;2023-02-10T00:35:48;103548.50;;;3.87;100.00
54172;BME280;40076;52.354;4.970;2023-02-10T00:38:13;103556.31;;;3.89;100.00
54172;BME280;40076;52.354;4.970;2023-02-10T00:40:38;103554.44;;;3.89;100.00
54172;BME280;40076;52.354;4.970;2023-02-10T00:43:04;103547.22;;;3.90;100.00
54172;BME280;40076;52.354;4.970;2023-02-10T00:45:29;103544.56;;;3.90;100.00
54172;BME280;40076;52.354;4.970;2023-02-10T00:47:54;103542.69;;;3.91;100.00
54172;BME280;40076;52.354;4.970;2023-02-10T00:50:20;103546.41;;;3.89;100.00
54172;BME280;40076;52.354;4.970;2023-02-10T00:52:45;103549.06;;;3.89;100.00
54172;BME280;40076;52.354;4.970;2023-02-10T00:55:10;103555.25;;;3.90;100.00
54172;BME280;40076;52.354;4.970;2023-02-10T00:57:38;103555.25;;;3.90;100.00
54172;BME280;40076;52.354;4.970;2023-02-10T01:00:04;103559.56;;;3.91;100.00
54172;BME280;40076;52.354;4.970;2023-02-10T01:02:30;103559.78;;;3.89;100.00
54172;BME280;40076;52.354;4.970;2023-02-10T01:04:59;103555.47;;;3.88;100.00
54172;BME280;40076;52.354;4.970;2023-02-10T01:07:24;103567.22;;;3.87;100.00
54172;BME280;40076;52.354;4.970;2023-02-10T01:09:50;103560.22;;;3.86;100.00
54172;BME280;40076;52.354;4.970;2023-02-10T01:12:15;103560.41;;;3.85;100.00
54172;BME280;40076;52.354;4.970;2023-02-10T01:14:40;103562.25;;;3.84;100.00
54172;BME280;40076;52.354;4.970;2023-02-10T01:17:08;103567.00;;;3.82;100.00
54172;BME280;40076;52.354;4.970;2023-02-10T01:19:34;103571.50;;;3.82;100.00
54172;BME280;40076;52.354;4.970;2023-02-10T01:21:59;103571.50;;;3.82;100.00
54172;BME280;40076;52.354;4.970;2023-02-10T01:24:25;103576.28;;;3.80;100.00
54172;BME280;40076;52.354;4.970;2023-02-10T01:26:53;103589.00;;;3.78;100.00
54172;BME280;40076;52.354;4.970;2023-02-10T01:29:18;103586.34;;;3.78;100.00
54172;BME280;40076;52.354;4.970;2023-02-10T01:31:46;103577.69;;;3.76;100.00
54172;BME280;40076;52.354;4.970;2023-02-10T01:34:11;103592.91;;;3.75;100.00
54172;BME280;40076;52.354;4.970;2023-02-10T01:36:40;103587.75;;;3.74;100.00
54172;BME280;40076;52.354;4.970;2023-02-10T01:39:05;103589.66;;;3.73;100.00
54172;BME280;40076;52.354;4.970;2023-02-10T01:41:46;103586.34;;;3.71;100.00
54172;BME280;40076;52.354;4.970;2023-02-10T01:46:47;103592.09;;;3.68;100.00
54172;BME280;40076;52.354;4.970;2023-02-10T01:49:16;103593.13;;;3.67;100.00
54172;BME280;40076;52.354;4.970;2023-02-10T01:51:47;103588.78;;;3.66;100.00
54172;BME280;40076;52.354;4.970;2023-02-10T01:54:19;103586.94;;;3.67;100.00
54172;BME280;40076;52.354;4.970;2023-02-10T01:56:46;103581.00;;;3.65;100.00
54172;BME280;40076;52.354;4.970;2023-02-10T01:59:13;103584.50;;;3.65;100.00
54172;BME280;40076;52.354;4.970;2023-02-10T02:01:39;103574.63;;;3.66;100.00
54172;BME280;40076;52.354;4.970;2023-02-10T02:04:05;103572.97;;;3.65;100.00
54172;BME280;40076;52.354;4.970;2023-02-10T02:06:34;103581.19;;;3.63;100.00
54172;BME280;40076;52.354;4.970;2023-02-10T02:09:03;103582.22;;;3.62;100.00
54172;BME280;40076;52.354;4.970;2023-02-10T02:11:39;103582.41;;;3.61;100.00
54172;BME280;40076;52.354;4.970;2023-02-10T02:16:56;103572.97;;;3.58;100.00
54172;BME280;40076;52.354;4.970;2023-02-10T02:34:10;103590.25;;;3.49;100.00
54172;BME280;40076;52.354;4.970;2023-02-10T02:36:40;103589.63;;;3.47;100.00
54172;BME280;40076;52.354;4.970;2023-02-10T02:39:07;103589.63;;;3.47;100.00
54172;BME280;40076;52.354;4.970;2023-02-10T02:41:33;103597.63;;;3.47;100.00
54172;BME280;40076;52.354;4.970;2023-02-10T02:44:01;103597.00;;;3.45;100.00
54172;BME280;40076;52.354;4.970;2023-02-10T02:52:10;103599.88;;;3.43;100.00
54172;BME280;40076;52.354;4.970;2023-02-10T02:54:44;103592.09;;;3.42;100.00
54172;BME280;40076;52.354;4.970;2023-02-10T02:57:15;103594.13;;;3.40;100.00
54172;BME280;40076;52.354;4.970;2023-02-10T02:59:58;103596.38;;;3.36;100.00
54172;BME280;40076;52.354;4.970;2023-02-10T03:02:32;103597.63;;;3.34;100.00
54172;BME280;40076;52.354;4.970;2023-02-10T03:04:58;103595.97;;;3.33;100.00
54172;BME280;40076;52.354;4.970;2023-02-10T03:07:24;103584.44;;;3.32;100.00
54172;BME280;40076;52.354;4.970;2023-02-10T03:09:49;103583.63;;;3.32;100.00
54172;BME280;40076;52.354;4.970;2023-02-10T03:12:14;103583.44;;;3.33;100.00
54172;BME280;40076;52.354;4.970;2023-02-10T03:14:40;103595.97;;;3.33;100.00
54172;BME280;40076;52.354;4.970;2023-02-10T03:17:08;103592.28;;;3.34;100.00
54172;BME280;40076;52.354;4.970;2023-02-10T03:19:34;103606.47;;;3.34;100.00
54172;BME280;40076;52.354;4.970;2023-02-10T03:22:05;103597.81;;;3.32;100.00
54172;BME280;40076;52.354;4.970;2023-02-10T03:24:33;103592.47;;;3.32;100.00
54172;BME280;40076;52.354;4.970;2023-02-10T03:26:59;103592.66;;;3.31;100.00
54172;BME280;40076;52.354;4.970;2023-02-10T03:29:24;103585.66;;;3.30;100.00
54172;BME280;40076;52.354;4.970;2023-02-10T03:31:52;103587.53;;;3.29;100.00
54172;BME280;40076;52.354;4.970;2023-02-10T03:34:18;103590.19;;;3.29;100.00
54172;BME280;40076;52.354;4.970;2023-02-10T03:36:43;103595.75;;;3.28;100.00
54172;BME280;40076;52.354;4.970;2023-02-10T03:39:08;103603.97;;;3.26;100.00
54172;BME280;40076;52.354;4.970;2023-02-10T03:41:34;103595.13;;;3.26;100.00
54172;BME280;40076;52.354;4.970;2023-02-10T03:44:02;103599.66;;;3.25;100.00
54172;BME280;40076;52.354;4.970;2023-02-10T03:46:28;103589.16;;;3.24;100.00
54172;BME280;40076;52.354;4.970;2023-02-10T03:48:53;103596.34;;;3.23;100.00
54172;BME280;40076;52.354;4.970;2023-02-10T03:51:19;103597.56;;;3.21;100.00
54172;BME280;40076;52.354;4.970;2023-02-10T03:53:44;103595.94;;;3.20;100.00
54172;BME280;40076;52.354;4.970;2023-02-10T03:56:10;103595.13;;;3.19;100.00
54172;BME280;40076;52.354;4.970;2023-02-10T03:58:35;103594.50;;;3.17;100.00
54172;BME280;40076;52.354;4.970;2023-02-10T04:01:15;103601.50;;;3.18;100.00
54172;BME280;40076;52.354;4.970;2023-02-10T04:03:41;103602.31;;;3.19;100.00
54172;BME280;40076;52.354;4.970;2023-02-10T04:06:10;103605.19;;;3.17;100.00
54172;BME280;40076;52.354;4.970;2023-02-10T04:08:39;103613.19;;;3.17;100.00
54172;BME280;40076;52.354;4.970;2023-02-10T04:11:05;103601.69;;;3.17;100.00
54172;BME280;40076;52.354;4.970;2023-02-10T04:13:33;103606.00;;;3.18;100.00
54172;BME280;40076;52.354;4.970;2023-02-10T04:16:02;103610.34;;;3.19;100.00
54172;BME280;40076;52.354;4.970;2023-02-10T04:18:28;103613.19;;;3.17;100.00
54172;BME280;40076;52.354;4.970;2023-02-10T04:20:53;103608.69;;;3.18;100.00
54172;BME280;40076;52.354;4.970;2023-02-10T04:23:19;103613.19;;;3.17;100.00
54172;BME280;40076;52.354;4.970;2023-02-10T04:25:44;103613.59;;;3.14;100.00
54172;BME280;40076;52.354;4.970;2023-02-10T04:28:10;103608.25;;;3.14;100.00
54172;BME280;40076;52.354;4.970;2023-02-10T04:30:35;103607.41;;;3.14;100.00
54172;BME280;40076;52.354;4.970;2023-02-10T04:33:00;103610.31;;;3.12;100.00
54172;BME280;40076;52.354;4.970;2023-02-10T04:35:26;103603.72;;;3.08;100.00
54172;BME280;40076;52.354;4.970;2023-02-10T04:37:51;103598.38;;;3.08;100.00
54172;BME280;40076;52.354;4.970;2023-02-10T04:40:16;103592.19;;;3.07;100.00
54172;BME280;40076;52.354;4.970;2023-02-10T04:42:42;103599.38;;;3.07;100.00
54172;BME280;40076;52.354;4.970;2023-02-10T04:45:07;103598.56;;;3.06;100.00
54172;BME280;40076;52.354;4.970;2023-02-10T04:47:33;103599.59;;;3.05;100.00
54172;BME280;40076;52.354;4.970;2023-02-10T04:50:01;103595.06;;;3.06;100.00
54172;BME280;40076;52.354;4.970;2023-02-10T04:52:29;103599.59;;;3.05;100.00
54172;BME280;40076;52.354;4.970;2023-02-10T04:54:54;103597.97;;;3.04;100.00
54172;BME280;40076;52.354;4.970;2023-02-10T04:57:20;103607.81;;;3.04;100.00
54172;BME280;40076;52.354;4.970;2023-02-10T04:59:45;103598.97;;;3.03;100.00
54172;BME280;40076;52.354;4.970;2023-02-10T05:02:11;103607.19;;;3.02;100.00
54172;BME280;40076;52.354;4.970;2023-02-10T05:04:39;103607.38;;;3.00;100.00
54172;BME280;40076;52.354;4.970;2023-02-10T05:07:04;103601.41;;;2.98;100.00
54172;BME280;40076;52.354;4.970;2023-02-10T05:09:30;103604.31;;;2.97;100.00
54172;BME280;40076;52.354;4.970;2023-02-10T05:11:58;103598.34;;;2.95;100.00
54172;BME280;40076;52.354;4.970;2023-02-10T05:14:23;103601.19;;;2.93;100.00
54172;BME280;40076;52.354;4.970;2023-02-10T05:16:49;103601.38;;;2.92;100.00
54172;BME280;40076;52.354;4.970;2023-02-10T05:19:15;103595.44;;;2.90;100.00
54172;BME280;40076;52.354;4.970;2023-02-10T05:21:40;103590.31;;;2.88;100.00
54172;BME280;40076;52.354;4.970;2023-02-10T05:24:08;103592.16;;;2.88;100.00
54172;BME280;40076;52.354;4.970;2023-02-10T05:26:34;103594.19;;;2.86;100.00
54172;BME280;40076;52.354;4.970;2023-02-10T05:28:59;103588.22;;;2.84;100.00
54172;BME280;40076;52.354;4.970;2023-02-10T05:31:24;103592.53;;;2.85;100.00
54172;BME280;40076;52.354;4.970;2023-02-10T05:33:50;103589.22;;;2.83;100.00
54172;BME280;40076;52.354;4.970;2023-02-10T05:36:15;103583.09;;;2.82;100.00
54172;BME280;40076;52.354;4.970;2023-02-10T05:38:42;103585.78;;;2.82;100.00
54172;BME280;40076;52.354;4.970;2023-02-10T05:41:28;103585.97;;;2.81;100.00
54172;BME280;40076;52.354;4.970;2023-02-10T05:43:53;103590.47;;;2.80;100.00
54172;BME280;40076;52.354;4.970;2023-02-10T05:46:18;103595.81;;;2.80;100.00
54172;BME280;40076;52.354;4.970;2023-02-10T05:48:44;103595.19;;;2.78;100.00
54172;BME280;40076;52.354;4.970;2023-02-10T05:51:10;103597.22;;;2.76;100.00
54172;BME280;40076;52.354;4.970;2023-02-10T05:53:39;103598.03;;;2.77;100.00
54172;BME280;40076;52.354;4.970;2023-02-10T05:56:12;103603.38;;;2.77;100.00
54172;BME280;40076;52.354;4.970;2023-02-10T05:58:38;103597.84;;;2.78;100.00
54172;BME280;40076;52.354;4.970;2023-02-10T06:01:11;103605.22;;;2.76;100.00
54172;BME280;40076;52.354;4.970;2023-02-10T06:03:39;103602.56;;;2.76;100.00
54172;BME280;40076;52.354;4.970;2023-02-10T06:06:05;103604.41;;;2.76;100.00
54172;BME280;40076;52.354;4.970;2023-02-10T06:08:30;103609.75;;;2.76;100.00
54172;BME280;40076;52.354;4.970;2023-02-10T06:10:56;103614.25;;;2.75;100.00
54172;BME280;40076;52.354;4.970;2023-02-10T06:13:21;103613.47;;;2.75;100.00
54172;BME280;40076;52.354;4.970;2023-02-10T06:15:46;103612.84;;;2.72;100.00
54172;BME280;40076;52.354;4.970;2023-02-10T06:18:12;103608.50;;;2.71;100.00
54172;BME280;40076;52.354;4.970;2023-02-10T06:20:37;103620.22;;;2.70;100.00
54172;BME280;40076;52.354;4.970;2023-02-10T06:23:03;103621.22;;;2.69;100.00
54172;BME280;40076;52.354;4.970;2023-02-10T06:25:29;103622.03;;;2.70;100.00
54172;BME280;40076;52.354;4.970;2023-02-10T06:27:54;103634.75;;;2.68;100.00
54172;BME280;40076;52.354;4.970;2023-02-10T06:30:20;103625.94;;;2.67;100.00
54172;BME280;40076;52.354;4.970;2023-02-10T06:32:45;103630.47;;;2.67;100.00
54172;BME280;40076;52.354;4.970;2023-02-10T06:35:10;103630.47;;;2.67;100.00
54172;BME280;40076;52.354;4.970;2023-02-10T06:37:39;103623.88;;;2.63;100.00
54172;BME280;40076;52.354;4.970;2023-02-10T06:40:05;103626.34;;;2.64;100.00
54172;BME280;40076;52.354;4.970;2023-02-10T06:42:39;103625.91;;;2.61;100.00
54172;BME280;40076;52.354;4.970;2023-02-10T06:45:10;103622.41;;;2.60;100.00
54172;BME280;40076;52.354;4.970;2023-02-10T06:47:35;103620.56;;;2.61;100.00
54172;BME280;40076;52.354;4.970;2023-02-10T06:50:03;103612.34;;;2.62;100.00
54172;BME280;40076;52.354;4.970;2023-02-10T06:52:29;103619.34;;;2.63;100.00
54172;BME280;40076;52.354;4.970;2023-02-10T06:54:55;103619.53;;;2.62;100.00
54172;BME280;40076;52.354;4.970;2023-02-10T06:57:20;103623.03;;;2.62;100.00
54172;BME280;40076;52.354;4.970;2023-02-10T06:59:46;103619.53;;;2.62;100.00
54172;BME280;40076;52.354;4.970;2023-02-10T07:02:12;103621.19;;;2.63;100.00
54172;BME280;40076;52.354;4.970;2023-02-10T07:04:38;103632.69;;;2.63;100.00
54172;BME280;40076;52.354;4.970;2023-02-10T07:07:03;103636.19;;;2.64;100.00
54172;BME280;40076;52.354;4.970;2023-02-10T07:09:29;103641.53;;;2.64;100.00
54172;BME280;40076;52.354;4.970;2023-02-10T07:11:54;103645.84;;;2.65;100.00
54172;BME280;40076;52.354;4.970;2023-02-10T07:14:20;103658.38;;;2.64;100.00
54172;BME280;40076;52.354;4.970;2023-02-10T07:16:45;103660.84;;;2.66;100.00
54172;BME280;40076;52.354;4.970;2023-02-10T07:19:12;103655.28;;;2.67;100.00
54172;BME280;40076;52.354;4.970;2023-02-10T07:21:37;103643.00;;;2.66;100.00
54172;BME280;40076;52.354;4.970;2023-02-10T07:24:03;103651.84;;;2.67;100.00
54172;BME280;40076;52.354;4.970;2023-02-10T07:26:29;103660.03;;;2.65;100.00
54172;BME280;40076;52.354;4.970;2023-02-10T07:28:54;103668.03;;;2.65;100.00
54172;BME280;40076;52.354;4.970;2023-02-10T07:31:20;103672.56;;;2.65;100.00
54172;BME280;40076;52.354;4.970;2023-02-10T07:33:45;103669.88;;;2.65;100.00
54172;BME280;40076;52.354;4.970;2023-02-10T07:36:10;103657.56;;;2.64;100.00
54172;BME280;40076;52.354;4.970;2023-02-10T07:38:38;103652.41;;;2.62;100.00
54172;BME280;40076;52.354;4.970;2023-02-10T07:41:05;103653.22;;;2.63;100.00
54172;BME280;40076;52.354;4.970;2023-02-10T07:43:39;103663.72;;;2.64;100.00
54172;BME280;40076;52.354;4.970;2023-02-10T07:46:04;103662.25;;;2.62;100.00
54172;BME280;40076;52.354;4.970;2023-02-10T07:48:30;103661.03;;;2.64;100.00
54172;BME280;40076;52.354;4.970;2023-02-10T07:50:55;103659.22;;;2.65;100.00
54172;BME280;40076;52.354;4.970;2023-02-10T07:53:21;103665.56;;;2.64;100.00
54172;BME280;40076;52.354;4.970;2023-02-10T07:55:47;103670.06;;;2.63;100.00
54172;BME280;40076;52.354;4.970;2023-02-10T07:58:13;103666.56;;;2.63;100.00
54172;BME280;40076;52.354;4.970;2023-02-10T08:00:38;103674.41;;;2.64;100.00
54172;BME280;40076;52.354;4.970;2023-02-10T08:03:04;103671.53;;;2.66;100.00
54172;BME280;40076;52.354;4.970;2023-02-10T08:05:30;103675.84;;;2.67;100.00
54172;BME280;40076;52.354;4.970;2023-02-10T08:07:59;103673.97;;;2.67;100.00
54172;BME280;40076;52.354;4.970;2023-02-10T08:10:24;103675.84;;;2.67;100.00
54172;BME280;40076;52.354;4.970;2023-02-10T08:12:50;103669.47;;;2.68;100.00
54172;BME280;40076;52.354;4.970;2023-02-10T08:15:15;103671.31;;;2.67;100.00
54172;BME280;40076;52.354;4.970;2023-02-10T08:17:42;103672.13;;;2.68;100.00
54172;BME280;40076;52.354;4.970;2023-02-10T08:20:09;103679.13;;;2.69;100.00
54172;BME280;40076;52.354;4.970;2023-02-10T08:22:35;103672.97;;;2.68;100.00
54172;BME280;40076;52.354;4.970;2023-02-10T08:25:00;103670.94;;;2.70;100.00
54172;BME280;40076;52.354;4.970;2023-02-10T08:27:29;103671.75;;;2.71;100.00
54172;BME280;40076;52.354;4.970;2023-02-10T08:29:55;103676.09;;;2.72;100.00
54172;BME280;40076;52.354;4.970;2023-02-10T08:32:21;103666.03;;;2.74;100.00
54172;BME280;40076;52.354;4.970;2023-02-10T08:34:47;103669.53;;;2.75;100.00
54172;BME280;40076;52.354;4.970;2023-02-10T08:37:13;103670.31;;;2.75;100.00
54172;BME280;40076;52.354;4.970;2023-02-10T08:39:39;103665.81;;;2.76;100.00
54172;BME280;40076;52.354;4.970;2023-02-10T08:42:05;103666.66;;;2.76;100.00
54172;BME280;40076;52.354;4.970;2023-02-10T08:44:30;103669.13;;;2.78;100.00
54172;BME280;40076;52.354;4.970;2023-02-10T08:46:55;103670.78;;;2.79;100.00
54172;BME280;40076;52.354;4.970;2023-02-10T08:49:21;103675.94;;;2.80;100.00
54172;BME280;40076;52.354;4.970;2023-02-10T08:51:50;103681.06;;;2.82;100.00
54172;BME280;40076;52.354;4.970;2023-02-10T08:54:19;103688.84;;;2.83;100.00
54172;BME280;40076;52.354;4.970;2023-02-10T08:56:45;103687.03;;;2.84;100.00
54172;BME280;40076;52.354;4.970;2023-02-10T08:59:10;103693.81;;;2.86;100.00
54172;BME280;40076;52.354;4.970;2023-02-10T09:01:39;103700.81;;;2.87;100.00
54172;BME280;40076;52.354;4.970;2023-02-10T09:04:05;103693.63;;;2.88;100.00
54172;BME280;40076;52.354;4.970;2023-02-10T09:06:36;103697.97;;;2.89;100.00
54172;BME280;40076;52.354;4.970;2023-02-10T09:09:31;103693.44;;;2.89;100.00
54172;BME280;40076;52.354;4.970;2023-02-10T09:12:08;103691.38;;;2.91;100.00
54172;BME280;40076;52.354;4.970;2023-02-10T09:14:39;103691.19;;;2.93;100.00
54172;BME280;40076;52.354;4.970;2023-02-10T09:17:05;103680.31;;;2.94;100.00
54172;BME280;40076;52.354;4.970;2023-02-10T09:19:34;103688.72;;;2.98;100.00
54172;BME280;40076;52.354;4.970;2023-02-10T09:21:59;103683.00;;;3.01;100.00
54172;BME280;40076;52.354;4.970;2023-02-10T09:24:25;103687.75;;;3.05;100.00
54172;BME280;40076;52.354;4.970;2023-02-10T09:26:50;103696.38;;;3.07;100.00
54172;BME280;40076;52.354;4.970;2023-02-10T09:29:16;103686.16;;;3.11;100.00
54172;BME280;40076;52.354;4.970;2023-02-10T09:31:43;103697.03;;;3.16;100.00
54172;BME280;40076;52.354;4.970;2023-02-10T09:34:15;103698.50;;;3.19;100.00
54172;BME280;40076;52.354;4.970;2023-02-10T09:36:40;103695.22;;;3.23;100.00
54172;BME280;40076;52.354;4.970;2023-02-10T09:39:08;103695.84;;;3.25;100.00
54172;BME280;40076;52.354;4.970;2023-02-10T09:44:16;103702.69;;;3.34;100.00
54172;BME280;40076;52.354;4.970;2023-02-10T09:54:26;103676.59;;;3.49;100.00
54172;BME280;40076;52.354;4.970;2023-02-10T09:57:08;103691.00;;;3.55;100.00
54172;BME280;40076;52.354;4.970;2023-02-10T09:59:38;103688.53;;;3.60;100.00
54172;BME280;40076;52.354;4.970;2023-02-10T10:03:05;103686.72;;;3.67;100.00
54172;BME280;40076;52.354;4.970;2023-02-10T10:05:17;103682.63;;;3.71;100.00
54172;BME280;40076;52.354;4.970;2023-02-10T10:07:48;103671.94;;;3.78;100.00
54172;BME280;40076;52.354;4.970;2023-02-10T10:10:27;103669.44;;;3.83;100.00
54172;BME280;40076;52.354;4.970;2023-02-10T10:12:54;103671.34;;;3.89;100.00
54172;BME280;40076;52.354;4.970;2023-02-10T10:15:19;103681.22;;;3.95;100.00
54172;BME280;40076;52.354;4.970;2023-02-10T10:20:45;103679.34;;;4.09;100.00
54172;BME280;40076;52.354;4.970;2023-02-10T10:26:03;103686.53;;;4.21;100.00
54172;BME280;40076;52.354;4.970;2023-02-10T10:31:23;103687.59;;;4.34;100.00
54172;BME280;40076;52.354;4.970;2023-02-10T10:36:51;103684.06;;;4.46;100.00
54172;BME280;40076;52.354;4.970;2023-02-10T10:39:35;103688.38;;;4.54;100.00
54172;BME280;40076;52.354;4.970;2023-02-10T10:45:06;103693.09;;;4.65;100.00
54172;BME280;40076;52.354;4.970;2023-02-10T10:47:47;103688.56;;;4.72;100.00
54172;BME280;40076;52.354;4.970;2023-02-10T10:50:17;103698.44;;;4.78;100.00
54172;BME280;40076;52.354;4.970;2023-02-10T10:52:46;103687.91;;;4.83;100.00
54172;BME280;40076;52.354;4.970;2023-02-10T10:55:38;103689.53;;;4.91;100.00
54172;BME280;40076;52.354;4.970;2023-02-10T11:00:49;103683.91;;;5.05;100.00
54172;BME280;40076;52.354;4.970;2023-02-10T11:03:15;103680.59;;;5.03;100.00
54172;BME280;40076;52.354;4.970;2023-02-10T11:05:41;103683.28;;;5.10;100.00
54172;BME280;40076;52.354;4.970;2023-02-10T11:08:22;103683.63;;;5.20;100.00
54172;BME280;40076;52.354;4.970;2023-02-10T11:10:51;103680.13;;;5.26;100.00
54172;BME280;40076;52.354;4.970;2023-02-10T11:13:23;103679.25;;;5.32;100.00
54172;BME280;40076;52.354;4.970;2023-02-10T11:15:59;103667.47;;;5.40;100.00
54172;BME280;40076;52.354;4.970;2023-02-10T11:18:25;103651.34;;;5.47;100.00
54172;BME280;40076;52.354;4.970;2023-02-10T11:21:03;103649.63;;;5.52;100.00
54172;BME280;40076;52.354;4.970;2023-02-10T11:23:29;103649.00;;;5.57;100.00
54172;BME280;40076;52.354;4.970;2023-02-10T11:26:01;103643.81;;;5.62;100.00
54172;BME280;40076;52.354;4.970;2023-02-10T11:28:29;103634.06;;;5.67;100.00
54172;BME280;40076;52.354;4.970;2023-02-10T11:31:05;103642.06;;;5.74;100.00
54172;BME280;40076;52.354;4.970;2023-02-10T11:33:35;103638.75;;;5.78;100.00
54172;BME280;40076;52.354;4.970;2023-02-10T11:36:09;103633.75;;;5.82;100.00
54172;BME280;40076;52.354;4.970;2023-02-10T11:38:39;103634.13;;;5.86;100.00
54172;BME280;40076;52.354;4.970;2023-02-10T11:41:08;103634.53;;;5.89;100.00
54172;BME280;40076;52.354;4.970;2023-02-10T11:43:44;103624.81;;;5.95;100.00
54172;BME280;40076;52.354;4.970;2023-02-10T11:46:39;103623.72;;;6.02;100.00
54172;BME280;40076;52.354;4.970;2023-02-10T11:49:17;103632.13;;;6.06;100.00
54172;BME280;40076;52.354;4.970;2023-02-10T11:51:54;103638.09;;;6.08;100.00
54172;BME280;40076;52.354;4.970;2023-02-10T11:54:20;103649.22;;;6.11;100.00
54172;BME280;40076;52.354;4.970;2023-02-10T11:59:48;103642.53;;;6.20;100.00
54172;BME280;40076;52.354;4.970;2023-02-10T12:05:39;103632.72;;;6.33;100.00
54172;BME280;40076;52.354;4.970;2023-02-10T12:08:20;103637.25;;;6.32;100.00
54172;BME280;40076;52.354;4.970;2023-02-10T12:11:08;103634.94;;;6.36;100.00
54172;BME280;40076;52.354;4.970;2023-02-10T12:14:19;103642.09;;;6.42;100.00
54172;BME280;40076;52.354;4.970;2023-02-10T12:16:32;103629.88;;;6.46;100.00
54172;BME280;40076;52.354;4.970;2023-02-10T12:19:04;103632.94;;;6.49;100.00
54172;BME280;40076;52.354;4.970;2023-02-10T12:21:45;103647.38;;;6.55;100.00
54172;BME280;40076;52.354;4.970;2023-02-10T12:25:05;103641.91;;;6.62;100.00
54172;BME280;40076;52.354;4.970;2023-02-10T12:33:17;103626.06;;;6.72;100.00
54172;BME280;40076;52.354;4.970;2023-02-10T12:36:08;103602.66;;;6.79;100.00
54172;BME280;40076;52.354;4.970;2023-02-10T12:38:40;103595.53;;;6.84;100.00
54172;BME280;40076;52.354;4.970;2023-02-10T12:49:12;103583.34;;;7.00;100.00
54172;BME280;40076;52.354;4.970;2023-02-10T12:51:54;103572.94;;;7.04;100.00
54172;BME280;40076;52.354;4.970;2023-02-10T12:57:18;103566.19;;;7.13;100.00
54172;BME280;40076;52.354;4.970;2023-02-10T13:00:03;103547.50;;;7.18;100.00
54172;BME280;40076;52.354;4.970;2023-02-10T13:05:01;103523.91;;;7.20;100.00
54172;BME280;40076;52.354;4.970;2023-02-10T13:12:42;103522.16;;;7.25;100.00
54172;BME280;40076;52.354;4.970;2023-02-10T13:15:16;103519.22;;;7.27;100.00
54172;BME280;40076;52.354;4.970;2023-02-10T13:17:48;103534.69;;;7.31;100.00
54172;BME280;40076;52.354;4.970;2023-02-10T13:22:53;103531.06;;;7.38;100.00
54172;BME280;40076;52.354;4.970;2023-02-10T13:25:34;103533.06;;;7.42;100.00
54172;BME280;40076;52.354;4.970;2023-02-10T13:28:25;103528.63;;;7.48;100.00
54172;BME280;40076;52.354;4.970;2023-02-10T13:31:06;103523.50;;;7.46;100.00
54172;BME280;40076;52.354;4.970;2023-02-10T13:34:01;103519.88;;;7.52;100.00
54172;BME280;40076;52.354;4.970;2023-02-10T13:36:33;103525.56;;;7.56;100.00
54172;BME280;40076;52.354;4.970;2023-02-10T13:39:03;103530.28;;;7.60;100.00
54172;BME280;40076;52.354;4.970;2023-02-10T13:41:34;103534.13;;;7.64;100.00
54172;BME280;40076;52.354;4.970;2023-02-10T13:44:32;103527.25;;;7.68;100.00
54172;BME280;40076;52.354;4.970;2023-02-10T13:49:35;103513.91;;;7.73;100.00
54172;BME280;40076;52.354;4.970;2023-02-10T13:52:12;103514.50;;;7.75;100.00
54172;BME280;40076;52.354;4.970;2023-02-10T13:54:39;103506.75;;;7.79;100.00
54172;BME280;40076;52.354;4.970;2023-02-10T13:57:04;103497.41;;;7.82;100.00
54172;BME280;40076;52.354;4.970;2023-02-10T13:59:39;103495.06;;;7.85;100.00
54172;BME280;40076;52.354;4.970;2023-02-10T14:02:16;103489.41;;;7.87;100.00
54172;BME280;40076;52.354;4.970;2023-02-10T14:04:47;103471.16;;;7.89;100.00
54172;BME280;40076;52.354;4.970;2023-02-10T14:10:02;103476.09;;;7.92;100.00
54172;BME280;40076;52.354;4.970;2023-02-10T14:12:34;103473.97;;;7.94;100.00
54172;BME280;40076;52.354;4.970;2023-02-10T14:15:25;103488.25;;;7.94;100.00
54172;BME280;40076;52.354;4.970;2023-02-10T14:20:28;103503.94;;;7.97;100.00
54172;BME280;40076;52.354;4.970;2023-02-10T14:22:58;103500.78;;;8.00;100.00
54172;BME280;40076;52.354;4.970;2023-02-10T14:25:31;103505.34;;;8.00;100.00
54172;BME280;40076;52.354;4.970;2023-02-10T14:27:58;103522.06;;;8.02;100.00
54172;BME280;40076;52.354;4.970;2023-02-10T14:30:43;103510.00;;;8.04;100.00
54172;BME280;40076;52.354;4.970;2023-02-10T14:33:24;103512.94;;;8.03;100.00
54172;BME280;40076;52.354;4.970;2023-02-10T14:35:53;103500.28;;;8.03;100.00